Time;durP1;ratioP1;P1;durP2;ratioP2;P2;SDS_P1;SDS_P2;PMS_P1;PMS_P2;Temp;Humidity;BMP_temperature;BMP_pressure;BME280_temperature;BME280_humidity;BME280_pressure;Samples;Min_cycle;Max_cycle;Signal;HPM_P1;HPM_P2
2021/06/25 00:02:11;;;;;;;29.80;14.50;;;;;;;20.91;86.49;100908.88;1749525;82;21094;-62
2021/06/25 00:04:39;;;;;;;32.90;15.80;;;;;;;20.88;86.67;100908.64;1720836;83;21122;-63
2021/06/25 00:07:08;;;;;;;33.42;15.32;;;;;;;20.85;86.78;100904.86;1749328;82;21149;-63
2021/06/25 00:09:37;;;;;;;29.10;15.78;;;;;;;20.83;86.81;100895.61;1749430;82;21176;-63
2021/06/25 00:12:11;;;;;;;41.30;27.15;;;;;;;20.85;86.75;100900.01;1720845;83;21162;-63
2021/06/25 00:14:39;;;;;;;42.88;32.63;;;;;;;20.85;86.65;100902.69;1749571;82;21057;-63
2021/06/25 00:17:08;;;;;;;56.20;43.30;;;;;;;20.82;86.72;100896.61;1720843;83;21126;-63
2021/06/25 00:19:37;;;;;;;50.63;37.17;;;;;;;20.82;86.75;100897.95;1749378;82;21078;-63
2021/06/25 00:22:06;;;;;;;62.88;42.62;;;;;;;20.81;86.65;100893.55;1720793;83;21183;-62
2021/06/25 00:24:35;;;;;;;56.10;39.45;;;;;;;20.82;86.45;100892.59;1749428;82;21106;-62
2021/06/25 00:27:04;;;;;;;53.13;37.35;;;;;;;20.80;86.40;100885.17;1720765;83;21220;-63
2021/06/25 00:29:33;;;;;;;53.13;34.63;;;;;;;20.79;86.37;100894.16;1749501;82;21110;-62
2021/06/25 00:32:02;;;;;;;35.05;17.27;;;;;;;20.77;86.25;100894.77;1720626;83;21114;-62
2021/06/25 00:34:30;;;;;;;33.70;14.35;;;;;;;20.75;86.15;100901.20;1749457;82;21172;-63
2021/06/25 00:36:59;;;;;;;26.75;12.88;;;;;;;20.72;86.03;100900.13;1720797;83;21130;-63
2021/06/25 00:39:28;;;;;;;29.65;13.93;;;;;;;20.67;86.08;100897.80;1749473;82;21077;-62
2021/06/25 00:41:56;;;;;;;29.72;13.60;;;;;;;20.63;86.01;100900.36;1720864;83;21170;-62
2021/06/25 00:44:25;;;;;;;24.32;12.53;;;;;;;20.60;86.01;100901.90;1745315;82;21092;-63
2021/06/25 00:46:54;;;;;;;30.90;12.95;;;;;;;20.57;86.04;100910.19;1730585;83;21101;-62
2021/06/25 00:49:23;;;;;;;25.97;11.85;;;;;;;20.54;85.99;100904.58;1730570;83;21139;-62
2021/06/25 00:51:52;;;;;;;31.57;13.20;;;;;;;20.52;86.01;100908.35;1730596;83;21034;-62
2021/06/25 00:54:20;;;;;;;29.60;15.35;;;;;;;20.49;86.05;100914.81;1730565;82;21057;-62
2021/06/25 00:56:49;;;;;;;27.25;14.43;;;;;;;20.47;86.03;100911.86;1730575;83;21124;-62
2021/06/25 00:59:18;;;;;;;30.35;16.17;;;;;;;20.47;85.98;100914.55;1730465;83;21073;-62
2021/06/25 01:01:47;;;;;;;27.07;14.35;;;;;;;20.46;85.91;100912.86;1730536;83;21175;-62
2021/06/25 01:04:16;;;;;;;27.60;14.33;;;;;;;20.46;85.89;100911.02;1730639;83;21061;-62
2021/06/25 01:06:45;;;;;;;27.37;14.15;;;;;;;20.47;85.90;100913.20;1730534;82;21029;-62
2021/06/25 01:09:14;;;;;;;26.80;12.88;;;;;;;20.46;85.95;100903.50;1730535;83;21519;-61
2021/06/25 01:11:43;;;;;;;28.80;13.70;;;;;;;20.46;85.91;100902.16;1730431;83;21562;-62
2021/06/25 01:14:12;;;;;;;30.55;14.43;;;;;;;20.46;85.86;100904.83;1730551;83;21156;-63
2021/06/25 01:16:41;;;;;;;28.35;13.48;;;;;;;20.46;85.85;100903.50;1730567;83;21151;-63
2021/06/25 01:19:14;;;;;;;37.42;12.28;;;;;;;20.47;85.79;100905.18;1730521;83;21065;-63
2021/06/25 01:21:45;;;;;;;28.67;12.95;;;;;;;20.47;85.65;100906.02;1730709;83;21049;-62
2021/06/25 01:24:14;;;;;;;19.98;11.25;;;;;;;20.50;85.52;100899.60;1730441;83;21054;-63
2021/06/25 01:26:43;;;;;;;20.97;10.30;;;;;;;20.54;85.35;100901.05;1730470;83;21136;-63
2021/06/25 01:29:11;;;;;;;21.68;9.98;;;;;;;20.57;85.14;100892.80;1730785;83;21139;-63
2021/06/25 01:31:40;;;;;;;26.52;10.90;;;;;;;20.59;84.87;100886.84;1702434;84;21139;-63
2021/06/25 01:34:09;;;;;;;29.42;13.40;;;;;;;20.60;84.64;100876.48;1702475;84;21084;-63
2021/06/25 01:36:39;;;;;;;22.05;10.90;;;;;;;20.60;84.49;100877.39;1702352;83;21538;-65
2021/06/25 01:39:08;;;;;;;27.70;11.80;;;;;;;20.60;84.43;100875.15;1702436;84;21480;-63
2021/06/25 01:41:40;;;;;;;36.28;15.18;;;;;;;20.58;84.37;100875.77;1702541;84;21124;-63
2021/06/25 01:44:10;;;;;;;31.03;13.47;;;;;;;20.55;84.45;100872.02;1702695;84;21495;-62
2021/06/25 01:46:41;;;;;;;19.17;10.13;;;;;;;20.54;84.46;100868.95;1702325;83;21216;-62
2021/06/25 01:49:10;;;;;;;22.15;11.28;;;;;;;20.53;84.54;100872.62;1702350;83;21171;-64
2021/06/25 01:51:39;;;;;;;33.33;21.05;;;;;;;20.53;84.53;100877.97;1702433;84;21416;-62
2021/06/25 01:54:08;;;;;;;37.95;21.00;;;;;;;20.52;84.66;100869.57;1702522;84;21143;-63
2021/06/25 01:56:37;;;;;;;32.05;28.02;;;;;;;20.51;84.65;100869.19;1702444;84;21182;-63
2021/06/25 01:59:06;;;;;;;49.40;32.95;;;;;;;20.50;84.59;100872.86;1702437;84;21167;-62
2021/06/25 02:01:35;;;;;;;39.80;25.08;;;;;;;20.49;84.66;100867.13;1702358;84;21560;-64
2021/06/25 02:04:03;;;;;;;45.98;24.12;;;;;;;20.48;84.69;100869.45;1702299;84;21111;-63
2021/06/25 02:06:32;;;;;;;43.58;22.25;;;;;;;20.49;84.67;100873.81;1702442;84;21164;-63
2021/06/25 02:09:01;;;;;;;32.90;18.52;;;;;;;20.50;84.75;100882.22;1702649;84;21068;-63
2021/06/25 02:11:30;;;;;;;38.75;19.65;;;;;;;20.50;84.79;100880.87;1702418;83;21135;-63
2021/06/25 02:13:59;;;;;;;37.58;19.20;;;;;;;20.52;84.81;100885.13;1702432;84;21088;-63
2021/06/25 02:16:27;;;;;;;28.83;16.23;;;;;;;20.51;84.81;100874.08;1702362;84;21088;-63
2021/06/25 02:18:56;;;;;;;24.30;12.88;;;;;;;20.52;84.86;100877.09;1702442;84;21219;-62
2021/06/25 02:21:25;;;;;;;23.92;12.40;;;;;;;20.53;84.91;100879.31;1702420;84;21064;-62
2021/06/25 02:23:54;;;;;;;27.98;13.13;;;;;;;20.54;84.92;100880.50;1702435;84;21065;-62
2021/06/25 02:26:23;;;;;;;28.98;13.75;;;;;;;20.56;84.96;100876.38;1702404;84;21555;-62
2021/06/25 02:28:52;;;;;;;27.40;14.15;;;;;;;20.60;85.01;100877.83;1702534;84;21147;-63
2021/06/25 02:31:21;;;;;;;25.92;12.37;;;;;;;20.62;85.06;100880.80;1702309;84;21096;-63
2021/06/25 02:33:49;;;;;;;27.55;13.15;;;;;;;20.67;85.14;100879.08;1702416;84;21105;-62
2021/06/25 02:36:18;;;;;;;27.35;13.53;;;;;;;20.74;85.01;100881.63;1702412;84;21567;-62
2021/06/25 02:38:47;;;;;;;30.70;14.75;;;;;;;20.79;84.95;100886.14;1702392;84;21131;-62
2021/06/25 02:41:17;;;;;;;32.33;16.52;;;;;;;20.89;84.90;100893.43;1702318;83;21498;-63
2021/06/25 02:43:46;;;;;;;32.88;15.88;;;;;;;20.98;84.91;100900.72;1702565;84;21037;-63
2021/06/25 02:46:16;;;;;;;36.53;19.42;;;;;;;21.05;84.86;100899.25;1702323;84;21117;-63
2021/06/25 02:48:44;;;;;;;36.65;17.90;;;;;;;21.10;84.76;100902.41;1702413;84;21056;-62
2021/06/25 02:51:13;;;;;;;35.43;17.12;;;;;;;21.07;84.64;100901.81;1702634;84;21602;-62
2021/06/25 02:53:42;;;;;;;32.95;16.05;;;;;;;21.03;84.43;100906.56;1702431;84;21121;-63
2021/06/25 02:56:10;;;;;;;32.03;17.48;;;;;;;21.00;84.31;100924.20;1702400;84;21097;-62
2021/06/25 02:58:39;;;;;;;39.48;18.55;;;;;;;20.96;84.29;100930.28;1702402;84;21196;-62
2021/06/25 03:01:07;;;;;;;33.88;17.40;;;;;;;20.94;84.27;100940.76;1702411;84;21069;-63
2021/06/25 03:03:36;;;;;;;32.70;17.27;;;;;;;20.91;84.26;100933.80;1702437;84;21167;-63
2021/06/25 03:06:05;;;;;;;38.15;17.55;;;;;;;20.91;84.31;100936.98;1702378;84;21191;-62
2021/06/25 03:08:34;;;;;;;38.17;17.60;;;;;;;20.90;84.35;100932.12;1702312;83;21101;-62
2021/06/25 03:11:03;;;;;;;35.78;18.27;;;;;;;20.89;84.42;100924.20;1702428;84;21128;-62
2021/06/25 03:13:32;;;;;;;37.70;19.05;;;;;;;20.91;84.59;100931.63;1702617;84;21072;-62
2021/06/25 03:16:01;;;;;;;30.48;17.62;;;;;;;20.94;84.76;100926.03;1702414;84;21121;-62
2021/06/25 03:18:30;;;;;;;40.65;19.70;;;;;;;21.00;84.82;100923.70;1702389;84;21101;-62
2021/06/25 03:20:58;;;;;;;29.75;17.52;;;;;;;21.09;84.88;100912.75;1702276;84;21115;-62
2021/06/25 03:23:27;;;;;;;31.25;16.12;;;;;;;21.24;85.01;100910.66;1702374;84;21646;-62
2021/06/25 03:25:56;;;;;;;34.70;16.15;;;;;;;21.43;85.14;100903.29;1702378;84;21081;-62
2021/06/25 03:28:24;;;;;;;33.55;16.55;;;;;;;21.65;85.16;100897.53;1702356;84;21171;-63
2021/06/25 03:30:53;;;;;;;31.40;16.17;;;;;;;21.85;84.99;100898.05;1702407;84;21089;-62
2021/06/25 03:33:22;;;;;;;33.28;18.35;;;;;;;22.05;84.69;100887.48;1702335;84;21216;-63
2021/06/25 03:35:51;;;;;;;33.48;18.12;;;;;;;22.19;84.08;100876.43;1702343;84;21175;-62
2021/06/25 03:38:20;;;;;;;30.92;15.72;;;;;;;22.35;83.83;100879.52;1702398;84;21551;-62
2021/06/25 03:40:49;;;;;;;27.55;16.93;;;;;;;22.46;82.86;100873.70;1702353;84;21060;-62
2021/06/25 03:43:17;;;;;;;32.45;16.20;;;;;;;22.55;82.40;100879.60;1702403;83;21160;-62
2021/06/25 03:45:47;;;;;;;32.48;15.85;;;;;;;22.69;82.29;100876.56;1702424;84;21168;-62
2021/06/25 03:48:15;;;;;;;25.85;14.07;;;;;;;22.88;82.28;100872.25;1717436;83;21177;-62
2021/06/25 03:50:44;;;;;;;24.70;13.45;;;;;;;23.08;82.00;100880.73;1749487;82;21220;-62
2021/06/25 03:53:13;;;;;;;22.58;13.50;;;;;;;23.23;81.43;100885.22;1720768;83;21077;-63
2021/06/25 03:58:29;;;;;;;21.60;11.80;;;;;;;23.49;80.23;100879.31;1720517;83;21537;-63
2021/06/25 04:00:58;;;;;;;22.00;10.98;;;;;;;23.59;79.68;100888.72;1749353;82;21097;-62
2021/06/25 04:03:27;;;;;;;21.00;10.93;;;;;;;23.67;79.28;100883.00;1720668;83;21101;-62
2021/06/25 04:05:55;;;;;;;22.50;10.68;;;;;;;23.82;79.11;100890.67;1749376;82;21153;-62
2021/06/25 04:08:26;;;;;;;29.42;10.53;;;;;;;23.96;78.24;100892.93;1720625;83;21167;-62
2021/06/25 04:10:55;;;;;;;21.57;10.13;;;;;;;24.13;78.03;100890.00;1749281;82;21078;-63
2021/06/25 04:13:24;;;;;;;21.33;10.58;;;;;;;24.32;77.27;100893.63;1720663;83;21141;-62
2021/06/25 04:15:54;;;;;;;18.32;10.15;;;;;;;24.44;77.15;100889.78;1749357;82;21525;-62
2021/06/25 04:18:23;;;;;;;16.37;9.05;;;;;;;24.65;76.81;100887.73;1720625;83;21516;-63
2021/06/25 04:20:54;;;;;;;15.43;9.13;;;;;;;24.85;76.29;100885.80;1749483;82;21493;-62
2021/06/25 04:23:23;;;;;;;17.57;9.48;;;;;;;25.05;75.19;100874.94;1720607;83;21074;-64
2021/06/25 04:25:52;;;;;;;18.85;10.18;;;;;;;25.16;74.23;100881.45;1749317;82;21156;-63
2021/06/25 04:28:21;;;;;;;17.10;9.05;;;;;;;25.34;73.47;100878.83;1720611;83;21126;-63
2021/06/25 04:30:51;;;;;;;20.02;10.35;;;;;;;25.53;73.18;100890.46;1749331;82;21074;-62
2021/06/25 04:33:20;;;;;;;13.75;9.13;;;;;;;25.70;72.78;100884.20;1720605;83;21144;-62
2021/06/25 04:35:50;;;;;;;18.05;9.00;;;;;;;25.98;72.79;100885.47;1749307;82;21117;-62
2021/06/25 04:38:20;;;;;;;17.95;9.60;;;;;;;26.14;71.34;100881.55;1720644;83;21690;-62
2021/06/25 04:40:51;;;;;;;15.88;9.83;;;;;;;26.20;70.79;100884.95;1749468;82;21168;-62
2021/06/25 04:43:20;;;;;;;15.95;8.75;;;;;;;26.33;70.62;100882.34;1720726;83;21101;-62
2021/06/25 04:45:49;;;;;;;18.90;9.38;;;;;;;26.50;70.42;100881.41;1749410;82;21579;-62
2021/06/25 04:48:18;;;;;;;17.40;8.73;;;;;;;26.71;69.95;100884.27;1710648;83;21176;-62
2021/06/25 04:50:47;;;;;;;17.90;9.13;;;;;;;26.85;69.21;100880.09;1730438;83;21081;-62
2021/06/25 04:53:16;;;;;;;15.53;8.45;;;;;;;26.66;68.74;100877.16;1702441;83;21123;-61
2021/06/25 04:55:45;;;;;;;23.80;9.20;;;;;;;26.46;68.42;100877.86;1730539;83;21053;-61
2021/06/25 04:58:16;;;;;;;16.50;8.83;;;;;;;26.37;68.88;100875.13;1702433;84;21547;-62
2021/06/25 05:00:46;;;;;;;22.32;9.08;;;;;;;26.27;69.16;100872.19;1730476;83;21156;-62
2021/06/25 05:03:15;;;;;;;16.10;8.58;;;;;;;26.41;68.58;100871.58;1702357;84;21123;-62
2021/06/25 05:05:44;;;;;;;18.60;9.08;;;;;;;26.59;68.21;100877.75;1730505;83;21073;-62
2021/06/25 05:08:13;;;;;;;13.28;8.80;;;;;;;26.66;67.89;100871.75;1702397;84;21076;-62
2021/06/25 05:10:42;;;;;;;13.28;8.00;;;;;;;26.52;67.67;100870.45;1730727;83;21512;-62
2021/06/25 05:13:13;;;;;;;19.35;8.03;;;;;;;26.51;67.92;100871.48;1702452;84;21508;-61
2021/06/25 05:15:41;;;;;;;12.80;8.03;;;;;;;26.74;67.77;100871.77;1730470;83;21059;-62
2021/06/25 05:18:18;;;;;;;17.77;8.55;;;;;;;26.99;67.44;100871.89;1702468;84;21080;-62
2021/06/25 05:20:48;;;;;;;18.37;8.95;;;;;;;27.26;66.96;100870.78;1730543;83;21033;-62
2021/06/25 05:23:18;;;;;;;13.15;8.03;;;;;;;27.67;66.90;100869.50;1702563;84;21064;-62
2021/06/25 05:25:48;;;;;;;15.38;7.70;;;;;;;27.65;65.76;100879.12;1730550;83;21215;-62
2021/06/25 05:28:16;;;;;;;13.85;7.40;;;;;;;27.87;65.73;100879.48;1702351;84;21068;-62
2021/06/25 05:30:45;;;;;;;13.08;7.60;;;;;;;28.05;65.25;100888.78;1730559;83;21078;-62
2021/06/25 05:33:14;;;;;;;16.10;8.03;;;;;;;28.00;64.77;100898.78;1702467;84;21618;-62
2021/06/25 05:35:43;;;;;;;19.35;6.80;;;;;;;28.12;64.64;100897.91;1730561;83;21131;-62
2021/06/25 05:38:18;;;;;;;9.78;6.83;;;;;;;28.58;64.20;100901.41;1702400;84;21040;-62
2021/06/25 05:40:44;;;;;;;17.05;8.85;;;;;;;28.82;63.28;100898.59;1729892;83;21061;-62
2021/06/25 05:43:13;;;;;;;17.32;8.80;;;;;;;28.81;62.85;100896.92;1702526;84;21060;-62
2021/06/25 05:45:42;;;;;;;15.23;7.35;;;;;;;28.62;62.50;100895.45;1730602;83;21053;-62
2021/06/25 05:48:11;;;;;;;16.57;7.55;;;;;;;28.54;61.97;100897.36;1702345;84;21175;-62
2021/06/25 05:50:40;;;;;;;19.77;9.60;;;;;;;28.18;62.39;100893.67;1730521;83;21655;-62
2021/06/25 05:53:09;;;;;;;16.17;7.92;;;;;;;28.16;63.41;100902.47;1702447;84;21071;-62
2021/06/25 05:55:42;;;;;;;17.90;9.23;;;;;;;28.16;63.75;100901.13;1730530;83;21053;-62
2021/06/25 05:58:08;;;;;;;17.60;8.60;;;;;;;28.14;64.08;100904.51;1703605;84;21139;-62
2021/06/25 06:00:37;;;;;;;14.98;8.75;;;;;;;27.98;63.99;100898.11;1740982;82;21184;-62
2021/06/25 06:03:06;;;;;;;11.93;8.00;;;;;;;27.89;63.44;100895.03;1702893;84;21176;-63
2021/06/25 06:05:35;;;;;;;14.85;7.15;;;;;;;28.21;63.42;100898.23;1736204;83;21570;-62
2021/06/25 06:08:07;;;;;;;16.12;8.83;;;;;;;28.38;62.95;100899.56;1736178;83;21159;-62
2021/06/25 06:10:36;;;;;;;12.63;7.85;;;;;;;28.50;62.87;100900.89;1736532;83;21089;-62
2021/06/25 06:13:05;;;;;;;12.30;7.10;;;;;;;28.79;61.99;100902.16;1736188;83;21538;-62
2021/06/25 06:15:35;;;;;;;15.83;7.45;;;;;;;28.86;61.10;100897.73;1736248;83;21159;-62
2021/06/25 06:18:05;;;;;;;18.15;9.10;;;;;;;28.66;60.96;100895.95;1736159;83;21089;-64
2021/06/25 06:20:34;;;;;;;14.98;8.58;;;;;;;28.53;61.47;100892.95;1736360;83;21081;-62
2021/06/25 06:31:24;;;;;;;14.85;7.85;;;;;;;28.01;62.31;100900.45;1736378;83;21163;-62
2021/06/25 06:33:55;;;;;;;13.03;7.65;;;;;;;28.08;62.35;100905.52;1736242;83;21077;-63
2021/06/25 06:36:41;;;;;;;14.13;7.20;;;;;;;28.37;62.38;100894.66;1736167;83;21109;-63
2021/06/25 06:39:02;;;;;;;17.67;7.62;;;;;;;28.46;61.04;100892.78;1735764;82;21085;-63
2021/06/25 06:41:31;;;;;;;16.87;8.05;;;;;;;28.32;60.96;100905.67;1702506;84;21569;-64
2021/06/25 06:44:01;;;;;;;17.32;8.10;;;;;;;28.29;61.27;100906.84;1730511;83;21559;-65
2021/06/25 06:46:31;;;;;;;12.93;7.60;;;;;;;28.33;61.65;100909.57;1702660;84;21061;-65
2021/06/25 06:49:00;;;;;;;19.82;8.58;;;;;;;28.50;61.46;100915.27;1733928;82;21568;-64
2021/06/25 06:51:29;;;;;;;17.50;8.30;;;;;;;28.52;61.42;100910.20;1720475;83;21186;-65
2021/06/25 06:54:00;;;;;;;14.33;8.05;;;;;;;28.54;61.55;100906.84;1749277;82;21521;-65
2021/06/25 06:56:29;;;;;;;14.63;7.40;;;;;;;28.97;61.24;100907.34;1720635;83;21177;-64
2021/06/25 06:59:00;;;;;;;15.65;7.67;;;;;;;29.58;60.54;100909.72;1749273;82;21588;-64
2021/06/25 07:01:31;;;;;;;12.33;6.92;;;;;;;30.30;58.90;100908.45;1720553;83;21170;-64
2021/06/25 07:04:00;;;;;;;12.10;6.15;;;;;;;30.97;57.46;100902.66;1749168;82;21153;-65
2021/06/25 07:06:30;;;;;;;12.80;6.72;;;;;;;31.54;56.28;100903.22;1720834;83;21545;-65
2021/06/25 07:08:58;;;;;;;14.75;6.92;;;;;;;31.79;54.14;100897.38;1749243;82;21615;-64
2021/06/25 07:11:27;;;;;;;15.60;6.53;;;;;;;32.12;53.52;100891.39;1720603;83;21118;-64
2021/06/25 07:13:56;;;;;;;14.30;7.00;;;;;;;32.27;52.80;100889.92;1749315;82;21180;-64
2021/06/25 07:16:25;;;;;;;14.47;6.25;;;;;;;32.51;52.16;100889.96;1720521;83;21118;-64
2021/06/25 07:18:54;;;;;;;14.98;7.33;;;;;;;32.77;51.88;100893.90;1749266;82;21090;-64
2021/06/25 07:21:22;;;;;;;13.88;6.17;;;;;;;32.84;51.97;100897.50;1720608;83;21062;-64
2021/06/25 07:23:51;;;;;;;18.90;7.20;;;;;;;32.44;51.21;100906.26;1749230;82;21133;-64
2021/06/25 07:26:20;;;;;;;17.82;6.87;;;;;;;31.85;51.52;100907.47;1720534;83;21133;-64
2021/06/25 07:28:51;;;;;;;23.98;7.08;;;;;;;31.10;52.27;100908.25;1749263;82;21160;-64
2021/06/25 07:31:38;;;;;;;13.90;7.40;;;;;;;30.58;53.65;100903.77;1749333;82;21170;-61
2021/06/25 07:34:07;;;;;;;16.87;8.15;;;;;;;30.28;54.75;100909.15;1749408;82;21141;-62
2021/06/25 07:36:36;;;;;;;12.43;6.45;;;;;;;30.19;55.28;100907.05;1749367;82;21619;-62
2021/06/25 07:39:08;;;;;;;14.15;6.28;;;;;;;30.09;55.11;100902.91;1749338;82;21151;-62
2021/06/25 07:41:35;;;;;;;12.95;6.28;;;;;;;29.86;55.18;100906.48;1722033;82;21146;-62
2021/06/25 07:44:05;;;;;;;13.75;6.15;;;;;;;29.63;55.51;100905.95;1742237;82;21153;-62
2021/06/25 07:46:33;;;;;;;15.60;6.62;;;;;;;29.42;55.72;100897.13;1749375;82;21140;-65
2021/06/25 07:49:03;;;;;;;16.45;7.00;;;;;;;29.16;56.43;100894.75;1749198;82;21149;-65
2021/06/25 07:51:33;;;;;;;11.50;7.15;;;;;;;28.79;57.87;100886.77;1749276;82;21523;-64
2021/06/25 07:54:01;;;;;;;13.65;7.62;;;;;;;28.54;58.83;100881.11;1749262;82;21066;-64
2021/06/25 07:56:30;;;;;;;19.73;7.37;;;;;;;28.41;59.31;100889.75;1749229;82;21086;-65
2021/06/25 07:58:59;;;;;;;12.53;7.25;;;;;;;28.24;59.60;100891.66;1749255;82;21156;-65
2021/06/25 08:01:28;;;;;;;17.23;7.92;;;;;;;28.06;60.61;100887.78;1749260;82;21215;-65
2021/06/25 08:03:56;;;;;;;15.80;9.13;;;;;;;27.94;61.27;100883.20;1749349;82;21074;-65
2021/06/25 08:06:25;;;;;;;16.52;8.30;;;;;;;27.88;61.69;100876.58;1749195;82;21106;-66
2021/06/25 08:08:54;;;;;;;16.62;8.83;;;;;;;27.78;62.50;100872.34;1749194;82;21082;-65
2021/06/25 08:11:23;;;;;;;20.48;8.95;;;;;;;27.61;63.52;100869.67;1749218;82;21274;-65
2021/06/25 08:13:52;;;;;;;15.45;9.43;;;;;;;27.56;63.50;100880.14;1749402;82;21114;-65
2021/06/25 08:16:21;;;;;;;15.13;8.63;;;;;;;27.58;63.65;100879.98;1749327;82;21102;-64
2021/06/25 08:18:57;;;;;;;16.60;9.20;;;;;;;27.60;64.01;100880.66;1749338;82;21098;-64
2021/06/25 08:21:20;;;;;;;17.87;9.15;;;;;;;27.49;64.79;100899.39;1722012;82;21117;-65
2021/06/25 08:23:48;;;;;;;15.85;8.73;;;;;;;27.48;65.08;100904.45;1742304;82;21083;-65
2021/06/25 08:26:17;;;;;;;17.67;8.68;;;;;;;27.44;65.06;100898.53;1749364;82;21156;-65
2021/06/25 08:28:46;;;;;;;20.23;8.68;;;;;;;27.45;65.37;100894.83;1749335;82;21078;-65
2021/06/25 08:31:16;;;;;;;21.25;9.03;;;;;;;27.46;65.33;100895.66;1738311;82;21101;-65
2021/06/25 08:33:44;;;;;;;18.75;9.28;;;;;;;27.45;65.38;100894.83;1730351;83;21057;-65
2021/06/25 08:36:13;;;;;;;14.85;9.13;;;;;;;27.43;65.90;100895.50;1730463;82;21563;-65
2021/06/25 08:38:42;;;;;;;17.85;8.85;;;;;;;27.45;66.01;100899.39;1730462;83;21131;-65
2021/06/25 08:41:11;;;;;;;20.60;9.38;;;;;;;27.49;65.65;100892.63;1730432;83;21152;-65
2021/06/25 08:43:40;;;;;;;16.05;8.78;;;;;;;27.53;65.74;100903.45;1730444;83;21061;-63
2021/06/25 08:46:11;;;;;;;20.57;9.60;;;;;;;27.51;65.80;100906.83;1730495;82;21076;-63
2021/06/25 08:48:40;;;;;;;21.68;8.28;;;;;;;27.45;65.93;100905.64;1730433;83;21531;-62
2021/06/25 08:51:10;;;;;;;15.85;7.35;;;;;;;27.47;65.61;100904.13;1730419;83;21484;-62
2021/06/25 08:53:39;;;;;;;17.80;9.00;;;;;;;27.55;65.27;100904.13;1730547;83;21025;-63
2021/06/25 08:56:07;;;;;;;13.90;7.53;;;;;;;27.69;64.88;100891.30;1730479;83;21068;-62
2021/06/25 08:58:36;;;;;;;22.52;8.68;;;;;;;27.83;63.94;100888.92;1730407;83;21053;-62
2021/06/25 09:01:06;;;;;;;21.80;8.20;;;;;;;27.97;63.49;100884.22;1730470;83;21528;-62
2021/06/25 09:03:36;;;;;;;18.00;7.72;;;;;;;28.17;63.08;100886.58;1730446;83;21042;-62
2021/06/25 09:06:11;;;;;;;16.15;7.92;;;;;;;28.37;62.45;100883.83;1730662;81;21057;-62
2021/06/25 09:08:40;;;;;;;16.17;7.72;;;;;;;28.65;61.80;100881.56;1729698;83;21140;-63
2021/06/25 09:11:32;;;;;;;17.35;8.00;;;;;;;28.92;61.36;100879.44;1730272;83;21567;-64
2021/06/25 09:14:04;;;;;;;13.50;8.08;;;;;;;29.01;60.92;100869.38;1730419;82;21038;-63
2021/06/25 09:16:35;;;;;;;15.30;8.58;;;;;;;28.99;60.90;100876.84;1730452;83;21156;-63
2021/06/25 09:19:07;;;;;;;19.65;7.53;;;;;;;29.05;61.20;100876.16;1730459;83;21202;-63
2021/06/25 09:21:39;;;;;;;17.90;7.37;;;;;;;29.11;60.59;100881.37;1730360;83;21124;-63
2021/06/25 09:24:19;;;;;;;14.40;7.70;;;;;;;29.15;60.10;100878.14;1730737;83;21147;-63
2021/06/25 09:26:49;;;;;;;19.62;8.48;;;;;;;29.18;59.40;100881.00;1729598;83;21081;-63
2021/06/25 09:29:23;;;;;;;13.38;7.45;;;;;;;29.18;59.53;100864.73;1730447;83;21531;-63
2021/06/25 09:32:04;;;;;;;14.65;8.30;;;;;;;29.39;59.35;100869.52;1740645;82;21110;-63
2021/06/25 09:34:48;;;;;;;18.37;8.25;;;;;;;29.52;59.36;100868.41;1720490;83;21532;-63
2021/06/25 09:37:19;;;;;;;17.17;7.78;;;;;;;29.47;59.80;100864.02;1749398;82;21077;-62
2021/06/25 09:40:03;;;;;;;13.62;7.83;;;;;;;29.43;59.49;100862.70;1749341;82;21078;-63
2021/06/25 09:42:32;;;;;;;15.53;7.90;;;;;;;29.23;59.50;100859.62;1749227;82;21148;-63
2021/06/25 09:45:07;;;;;;;15.93;8.13;;;;;;;29.01;60.43;100857.17;1749327;82;21588;-63
2021/06/25 09:47:38;;;;;;;16.50;7.80;;;;;;;28.83;60.96;100857.46;1749323;82;21078;-63
2021/06/25 09:50:12;;;;;;;14.67;7.57;;;;;;;28.84;60.73;100853.20;1720815;83;21126;-63
2021/06/25 09:52:50;;;;;;;14.20;7.12;;;;;;;29.29;60.82;100851.27;1749288;82;21156;-64
2021/06/25 09:55:21;;;;;;;14.85;6.65;;;;;;;29.78;58.90;100848.22;1720650;83;21106;-63
2021/06/25 10:03:42;;;;;;;12.05;6.45;;;;;;;30.22;55.87;100852.88;1749442;82;21059;-62
2021/06/25 10:06:13;;;;;;;10.90;6.83;;;;;;;29.90;56.60;100859.45;1722153;83;21082;-63
2021/06/25 10:08:44;;;;;;;11.83;6.62;;;;;;;29.70;56.54;100853.70;1749303;82;21516;-63
2021/06/25 10:11:15;;;;;;;9.05;5.70;;;;;;;29.47;56.62;100852.34;1749254;82;21132;-63
2021/06/25 10:13:45;;;;;;;13.03;6.03;;;;;;;29.58;56.40;100842.41;1749249;82;21178;-63
2021/06/25 10:16:14;;;;;;;9.65;5.20;;;;;;;29.67;55.74;100848.10;1749407;82;21078;-63
2021/06/25 10:18:46;;;;;;;10.48;5.20;;;;;;;29.83;55.86;100858.02;1749427;82;21528;-63
2021/06/25 10:21:17;;;;;;;10.37;5.50;;;;;;;30.06;56.01;100850.33;1720833;83;21607;-63
2021/06/25 10:23:49;;;;;;;12.53;5.45;;;;;;;30.51;55.33;100849.34;1749274;82;21160;-63
2021/06/25 10:26:19;;;;;;;14.90;5.35;;;;;;;30.75;54.42;100851.44;1749288;82;21082;-63
2021/06/25 10:28:50;;;;;;;8.10;5.35;;;;;;;30.95;54.05;100842.17;1749405;82;21140;-62
2021/06/25 10:31:22;;;;;;;13.88;6.15;;;;;;;31.07;54.11;100843.36;1749305;82;21512;-63
2021/06/25 10:33:52;;;;;;;11.48;5.45;;;;;;;30.98;53.20;100835.83;1749463;82;21078;-62
2021/06/25 10:36:23;;;;;;;14.43;6.55;;;;;;;30.87;53.25;100832.75;1749309;82;21082;-62
2021/06/25 10:38:53;;;;;;;11.20;5.40;;;;;;;30.84;53.26;100828.55;1749152;82;21670;-63
2021/06/25 10:41:22;;;;;;;8.85;5.65;;;;;;;30.67;52.99;100821.63;1749422;82;21062;-63
2021/06/25 10:43:53;;;;;;;10.43;5.33;;;;;;;30.73;53.18;100824.45;1749303;82;21070;-63
2021/06/25 10:46:30;;;;;;;12.93;5.40;;;;;;;30.79;53.73;100826.39;1749401;82;21092;-63
2021/06/25 10:49:14;;;;;;;12.75;5.83;;;;;;;30.82;53.51;100818.88;1749288;82;21093;-65
2021/06/25 10:51:45;;;;;;;15.32;6.30;;;;;;;30.62;54.08;100814.06;1749279;82;21540;-63
2021/06/25 10:54:21;;;;;;;12.33;6.10;;;;;;;30.58;54.48;100820.89;1749482;82;21082;-63
2021/06/25 10:56:53;;;;;;;16.82;6.20;;;;;;;30.43;55.09;100818.72;1749424;82;21054;-63
2021/06/25 10:59:29;;;;;;;10.28;5.10;;;;;;;30.26;55.92;100818.88;1742278;82;21071;-63
2021/06/25 11:02:06;;;;;;;7.75;5.58;;;;;;;30.26;55.52;100816.16;1748822;82;21466;-63
2021/06/25 11:04:41;;;;;;;9.10;5.50;;;;;;;30.31;55.53;100812.38;1749297;82;21204;-63
2021/06/25 11:07:13;;;;;;;12.55;6.10;;;;;;;30.39;55.15;100813.65;1749328;82;21054;-63
2021/06/25 11:10:02;;;;;;;12.63;5.83;;;;;;;30.45;55.16;100812.57;1749557;82;21148;-64
2021/06/25 11:12:40;;;;;;;12.90;6.10;;;;;;;30.31;54.96;100817.80;1749231;82;21529;-63
2021/06/25 11:15:12;;;;;;;12.47;5.70;;;;;;;30.35;55.31;100823.21;1748796;82;21483;-63
2021/06/25 11:17:54;;;;;;;11.40;5.78;;;;;;;30.48;55.32;100824.43;1749656;82;21078;-63
2021/06/25 11:20:27;;;;;;;10.98;6.30;;;;;;;30.55;55.63;100824.00;1720479;83;21106;-63
2021/06/25 11:23:07;;;;;;;11.38;5.65;;;;;;;30.37;55.13;100813.00;1749430;82;21204;-63
2021/06/25 11:25:56;;;;;;;17.85;6.40;;;;;;;30.15;56.08;100820.70;1749295;82;21486;-63
2021/06/25 11:28:40;;;;;;;10.88;5.50;;;;;;;29.98;56.74;100822.23;1749289;82;21134;-63
2021/06/25 11:31:21;;;;;;;11.95;5.30;;;;;;;29.86;57.13;100820.98;1742125;82;21767;-63
2021/06/25 11:33:55;;;;;;;8.33;5.13;;;;;;;29.88;57.17;100817.59;1711944;84;21244;-63
2021/06/25 11:36:52;;;;;;;10.10;5.42;;;;;;;29.88;57.05;100829.81;1713925;83;21153;-63
2021/06/25 11:39:32;;;;;;;14.13;6.35;;;;;;;29.95;56.53;100821.75;1713825;83;21133;-63
2021/06/25 11:42:11;;;;;;;11.83;5.75;;;;;;;29.95;56.46;100828.02;1713901;84;21093;-63
2021/06/25 11:44:43;;;;;;;12.43;5.70;;;;;;;29.73;56.49;100829.75;1713926;84;21205;-63
2021/06/25 11:47:18;;;;;;;8.70;5.03;;;;;;;29.61;56.95;100838.83;1714296;84;21084;-63